createdAt,value
2016-10-10T00:00:18.025Z,60.91
2016-10-10T00:01:18.044Z,60.24
2016-10-10T00:02:18.061Z,60.53
2016-10-10T00:03:17.762Z,60.34
2016-10-10T00:04:18.094Z,60.34
2016-10-10T00:05:18.113Z,60.63
2016-10-10T00:06:17.822Z,60.44
2016-10-10T00:07:18.153Z,60.63
2016-10-10T00:08:17.859Z,60.24
2016-10-10T00:09:17.867Z,60.05
2016-10-10T00:10:18.199Z,60.24
2016-10-10T00:11:17.901Z,60.05
2016-10-10T00:12:18.235Z,60.72
2016-10-10T00:13:18.251Z,61.38
2016-10-10T00:14:17.957Z,61.48
2016-10-10T00:15:18.285Z,61.58
2016-10-10T00:16:18.311Z,61.38
2016-10-10T00:17:18.320Z,61.86
2016-10-10T00:18:18.337Z,61.96
2016-10-10T00:19:18.043Z,62.43
2016-10-10T00:20:18.376Z,62.81
2016-10-10T00:21:18.074Z,62.53
2016-10-10T00:22:18.419Z,62.34
2016-10-10T00:23:18.441Z,62.05
2016-10-10T00:24:18.445Z,62.24
2016-10-10T00:25:18.142Z,62.34
2016-10-10T00:26:18.477Z,62.81
2016-10-10T00:27:18.191Z,62.62
2016-10-10T00:28:18.508Z,62.62
2016-10-10T00:29:18.221Z,62.43
2016-10-10T00:30:18.237Z,62.24
2016-10-10T00:31:18.264Z,61.96
2016-10-10T00:32:18.583Z,61.96
2016-10-10T00:33:18.595Z,62.15
2016-10-10T00:34:18.296Z,62.72
2016-10-10T00:35:18.319Z,62.43
2016-10-10T00:36:18.646Z,61.96
2016-10-10T00:37:18.349Z,62.43
2016-10-10T00:38:18.388Z,62.15
2016-10-10T00:39:18.697Z,61.86
2016-10-10T00:40:18.410Z,62.05
2016-10-10T00:41:18.732Z,62.05
2016-10-10T00:42:18.750Z,61.58
2016-10-10T00:43:18.452Z,62.24
2016-10-10T00:44:18.787Z,62.34
2016-10-10T00:45:18.492Z,61.96
2016-10-10T00:46:18.818Z,61.77
2016-10-10T00:47:18.519Z,62.05
2016-10-10T00:48:18.860Z,62.05
2016-10-10T00:49:18.554Z,61.38
2016-10-10T00:50:18.569Z,61.48
2016-10-10T00:51:18.789Z,61.77
2016-10-10T00:52:18.607Z,61.48
2016-10-10T00:53:18.623Z,61.29
2016-10-10T00:54:18.962Z,61.1
2016-10-10T00:55:18.973Z,61.19
2016-10-10T00:56:18.673Z,61.1
2016-10-10T00:57:18.690Z,61.48
2016-10-10T00:58:18.719Z,60.82
2016-10-10T00:59:19.042Z,60.34
2016-10-10T01:00:19.063Z,60.31
2016-10-10T01:01:18.760Z,60.69
2016-10-10T01:02:19.096Z,60.21
2016-10-10T01:03:19.107Z,60.5
2016-10-10T01:04:18.809Z,60.41
2016-10-10T01:05:19.145Z,60.53
2016-10-10T01:06:19.163Z,60.97
2016-10-10T01:07:19.174Z,61.35
2016-10-10T01:08:18.894Z,61.35
2016-10-10T01:09:18.899Z,61.16
2016-10-10T01:10:18.911Z,61.45
2016-10-10T01:11:18.930Z,61.35
2016-10-10T01:12:18.945Z,60.97
2016-10-10T01:13:19.277Z,62.02
2016-10-10T01:14:18.982Z,61.55
2016-10-10T01:15:19.329Z,61.55
2016-10-10T01:16:19.023Z,61.26
2016-10-10T01:17:19.032Z,61.26
2016-10-10T01:18:19.049Z,61.45
2016-10-10T01:19:19.066Z,61.64
2016-10-10T01:20:19.413Z,61.93
2016-10-10T01:21:19.417Z,62.3
2016-10-10T01:22:19.123Z,61.93
2016-10-10T01:23:19.133Z,62.02
2016-10-10T01:24:19.180Z,61.93
2016-10-10T01:25:19.167Z,61.83
2016-10-10T01:26:19.509Z,62.4
2016-10-10T01:27:19.206Z,62.59
2016-10-10T01:28:19.219Z,62.43
2016-10-10T01:29:19.235Z,62.59
2016-10-10T01:30:19.257Z,62.88
2016-10-10T01:31:19.268Z,62.69
2016-10-10T01:32:19.294Z,63.07
2016-10-10T01:33:19.616Z,63.17
2016-10-10T01:34:19.636Z,63.17
2016-10-10T01:35:19.651Z,63.39
2016-10-10T01:36:19.360Z,63.67
2016-10-10T01:37:19.687Z,64.53
2016-10-10T01:38:19.406Z,64.05
2016-10-10T01:39:19.406Z,64.24
2016-10-10T01:40:19.421Z,64.05
2016-10-10T01:41:19.437Z,63.86
2016-10-10T01:42:19.778Z,64.24
2016-10-10T01:43:19.473Z,64.05
2016-10-10T01:44:19.805Z,64.43
2016-10-10T01:45:19.829Z,64.34
2016-10-10T01:46:19.846Z,64.53
2016-10-10T01:47:19.540Z,64.43
2016-10-10T01:48:19.575Z,64.72
2016-10-10T01:49:19.888Z,65.19
2016-10-10T01:50:19.590Z,65.29
2016-10-10T01:51:19.608Z,65.67
2016-10-10T01:52:19.642Z,65.67
2016-10-10T01:53:19.958Z,65.67
2016-10-10T01:54:19.663Z,65.67
2016-10-10T01:55:19.991Z,65.67
2016-10-10T01:56:19.710Z,65.29
2016-10-10T01:57:19.713Z,65.77
2016-10-10T01:58:20.055Z,65.67
2016-10-10T01:59:19.747Z,65.48
2016-10-10T02:00:19.764Z,65.48
2016-10-10T02:01:20.094Z,65.95
2016-10-10T02:02:19.797Z,66.43
2016-10-10T02:03:19.814Z,66.53
2016-10-10T02:04:19.831Z,66.24
2016-10-10T02:05:20.166Z,66.53
2016-10-10T02:06:19.864Z,66.72
2016-10-10T02:07:20.197Z,66.81
2016-10-10T02:08:19.925Z,66.81
2016-10-10T02:09:20.232Z,66.24
2016-10-10T02:10:20.254Z,65.86
2016-10-10T02:11:19.959Z,65.95
2016-10-10T02:12:20.286Z,65.95
2016-10-10T02:13:19.985Z,65.86
2016-10-10T02:14:20.008Z,65.67
2016-10-10T02:15:20.338Z,64.9
2016-10-10T02:16:20.039Z,64.34
2016-10-10T02:17:20.371Z,63.86
2016-10-10T02:18:20.388Z,62.53
2016-10-10T02:19:20.411Z,62.72
2016-10-10T02:20:20.426Z,62.53
2016-10-10T02:21:20.438Z,62.43
2016-10-10T02:22:20.466Z,62.53
2016-10-10T02:23:20.163Z,62.34
2016-10-10T02:24:20.493Z,62.91
2016-10-10T02:25:20.193Z,63.2
2016-10-10T02:26:20.211Z,63.01
2016-10-10T02:27:20.544Z,63.39
2016-10-10T02:28:20.560Z,64.05
2016-10-10T02:29:20.263Z,63.67
2016-10-10T02:30:20.599Z,64.05
2016-10-10T02:31:20.296Z,63.2
2016-10-10T02:32:20.633Z,63.2
2016-10-10T02:33:20.338Z,63.1
2016-10-10T02:34:20.667Z,63.29
2016-10-10T02:35:20.365Z,63.39
2016-10-10T02:36:20.696Z,63.1
2016-10-10T02:37:20.734Z,62.43
2016-10-10T02:38:20.732Z,62.43
2016-10-10T02:39:20.433Z,62.15
2016-10-10T02:40:20.767Z,61.77
2016-10-10T02:41:20.783Z,61.96
2016-10-10T02:42:20.491Z,61.86
2016-10-10T02:43:20.815Z,61.96
2016-10-10T02:44:20.542Z,61.86
2016-10-10T02:45:20.557Z,62.15
2016-10-10T02:46:20.872Z,62.34
2016-10-10T02:47:20.574Z,61.86
2016-10-10T02:48:20.905Z,61.96
2016-10-10T02:49:20.605Z,62.53
2016-10-10T02:50:20.630Z,62.43
2016-10-10T02:51:20.640Z,62.72
2016-10-10T02:52:20.972Z,62.72
2016-10-10T02:53:20.674Z,62.43
2016-10-10T02:54:20.690Z,63.35
2016-10-10T02:55:20.707Z,62.12
2016-10-10T02:56:21.040Z,62.02
2016-10-10T02:57:21.059Z,62.15
2016-10-10T02:58:21.083Z,62.53
2016-10-10T02:59:20.777Z,63.07
2016-10-10T03:00:21.108Z,62.97
2016-10-10T03:01:21.126Z,62.69
2016-10-10T03:02:21.142Z,62.78
2016-10-10T03:03:21.166Z,63.17
2016-10-10T03:04:20.871Z,62.97
2016-10-10T03:05:21.194Z,63.35
2016-10-10T03:06:20.902Z,62.97
2016-10-10T03:07:20.915Z,63.17
2016-10-10T03:08:20.928Z,62.21
2016-10-10T03:09:21.258Z,62.49
2016-10-10T03:10:35.851Z,62.49
2016-10-10T03:11:21.295Z,61.93
2016-10-10T03:12:21.312Z,61.74
2016-10-10T03:13:21.013Z,62.49
2016-10-10T03:14:21.044Z,62.4
2016-10-10T03:15:21.052Z,62.59
2016-10-10T03:16:21.381Z,62.78
2016-10-10T03:17:21.079Z,62.59
2016-10-10T03:18:21.413Z,62.3
2016-10-10T03:19:21.112Z,62.4
2016-10-10T03:20:21.445Z,62.4
2016-10-10T03:21:21.165Z,62.78
2016-10-10T03:22:21.481Z,63.35
2016-10-10T03:23:21.182Z,63.26
2016-10-10T03:24:21.517Z,63.89
2016-10-10T03:25:21.213Z,63.7
2016-10-10T03:26:21.551Z,63.83
2016-10-10T03:27:21.562Z,63.7
2016-10-10T03:28:21.264Z,63.51
2016-10-10T03:29:21.598Z,63.79
2016-10-10T03:30:21.616Z,63.7
2016-10-10T03:31:21.631Z,63.6
2016-10-10T03:32:21.331Z,63.42
2016-10-10T03:33:21.345Z,64.18
2016-10-10T03:34:21.680Z,63.89
2016-10-10T03:35:21.694Z,63.7
2016-10-10T03:36:21.403Z,64.37
2016-10-10T03:37:21.417Z,64.37
2016-10-10T03:38:21.753Z,64.27
2016-10-10T03:39:21.448Z,64.56
2016-10-10T03:40:21.787Z,64.46
2016-10-10T03:41:21.495Z,64.65
2016-10-10T03:42:21.496Z,64.46
2016-10-10T03:43:21.517Z,64.56
2016-10-10T03:44:21.844Z,64.46
2016-10-10T03:45:21.865Z,65.03
2016-10-10T03:46:21.876Z,65.13
2016-10-10T03:47:21.581Z,65.6
2016-10-10T03:48:21.912Z,65.8
2016-10-10T03:49:21.928Z,64.94
2016-10-10T03:50:21.942Z,64.94
2016-10-10T03:51:21.990Z,65.13
2016-10-10T03:52:21.980Z,64.65
2016-10-10T03:53:21.993Z,65.22
2016-10-10T03:54:21.695Z,65.51
2016-10-10T03:55:22.033Z,65.41
2016-10-10T03:56:21.735Z,65.41
2016-10-10T03:57:21.752Z,65.7
2016-10-10T03:58:22.084Z,65.7
2016-10-10T03:59:22.096Z,65.6
2016-10-10T04:00:22.112Z,65.32
2016-10-10T04:01:21.811Z,65.51
2016-10-10T04:02:22.150Z,65.7
2016-10-10T04:03:21.843Z,65.16
2016-10-10T04:04:22.178Z,65.54
2016-10-10T04:05:21.879Z,65.6
2016-10-10T04:06:22.210Z,65.7
2016-10-10T04:07:21.911Z,65.8
2016-10-10T04:08:22.251Z,65.51
2016-10-10T04:09:21.944Z,66.11
2016-10-10T04:10:21.960Z,65.92
2016-10-10T04:11:21.974Z,65.92
2016-10-10T04:12:21.999Z,66.11
2016-10-10T04:13:22.326Z,65.83
2016-10-10T04:14:22.350Z,65.83
2016-10-10T04:15:22.042Z,65.83
2016-10-10T04:16:22.058Z,66.11
2016-10-10T04:17:22.389Z,65.92
2016-10-10T04:18:22.093Z,66.02
2016-10-10T04:19:22.116Z,66.02
2016-10-10T04:20:22.449Z,66.49
2016-10-10T04:21:22.144Z,66.78
2016-10-10T04:22:22.158Z,66.49
2016-10-10T04:23:22.176Z,66.97
2016-10-10T04:24:22.507Z,67.25
2016-10-10T04:25:22.207Z,67.54
2016-10-10T04:26:22.538Z,67.25
2016-10-10T04:27:22.562Z,67.07
2016-10-10T04:28:22.265Z,66.78
2016-10-10T04:29:22.274Z,67.16
2016-10-10T04:30:22.299Z,67.54
2016-10-10T04:31:22.307Z,67.25
2016-10-10T04:32:22.320Z,67.16
2016-10-10T04:33:22.341Z,67.25
2016-10-10T04:34:22.672Z,66.49
2016-10-10T04:35:22.382Z,66.39
2016-10-10T04:36:22.392Z,66.49
2016-10-10T04:37:22.721Z,66.78
2016-10-10T04:38:22.744Z,67.16
2016-10-10T04:39:22.763Z,66.87
2016-10-10T04:40:22.457Z,67.16
2016-10-10T04:41:22.473Z,67.44
2016-10-10T04:42:22.807Z,67.16
2016-10-10T04:43:22.506Z,67.16
2016-10-10T04:44:22.840Z,67.63
2016-10-10T04:45:22.540Z,67.16
2016-10-10T04:46:22.558Z,67.07
2016-10-10T04:47:22.889Z,67.35
2016-10-10T04:48:22.904Z,67.16
2016-10-10T04:49:22.610Z,67.07
2016-10-10T04:50:22.637Z,67.44
2016-10-10T04:51:22.956Z,67.44
2016-10-10T04:52:22.657Z,67.16
2016-10-10T04:53:22.676Z,67.44
2016-10-10T04:54:22.694Z,67.16
2016-10-10T04:55:22.708Z,67.07
2016-10-10T04:56:23.051Z,67.16
2016-10-10T04:57:22.760Z,66.97
2016-10-10T04:58:23.077Z,66.59
2016-10-10T04:59:22.774Z,66.59
2016-10-10T05:00:22.794Z,66.78
2016-10-10T05:01:22.810Z,66.78
2016-10-10T05:02:22.831Z,66.78
2016-10-10T05:03:22.842Z,66.87
2016-10-10T05:04:23.176Z,66.49
2016-10-10T05:05:22.876Z,66.68
2016-10-10T05:06:22.900Z,67.07
2016-10-10T05:07:22.910Z,66.87
2016-10-10T05:08:22.928Z,66.59
2016-10-10T05:09:22.955Z,66.3
2016-10-10T05:10:23.280Z,65.92
2016-10-10T05:11:23.291Z,65.64
2016-10-10T05:12:22.993Z,65.64
2016-10-10T05:13:23.340Z,65.83
2016-10-10T05:14:23.344Z,65.54
2016-10-10T05:15:23.043Z,66.02
2016-10-10T05:16:23.376Z,65.54
2016-10-10T05:17:23.077Z,65.73
2016-10-10T05:18:23.102Z,66.11
2016-10-10T05:19:23.120Z,66.02
2016-10-10T05:20:23.447Z,66.05
2016-10-10T05:21:23.144Z,66.87
2016-10-10T05:22:23.481Z,66.24
2016-10-10T05:23:23.510Z,66.87
2016-10-10T05:24:23.199Z,66.87
2016-10-10T05:25:23.226Z,66.87
2016-10-10T05:26:23.229Z,66.49
2016-10-10T05:27:23.260Z,66.33
2016-10-10T05:28:23.580Z,66.87
2016-10-10T05:29:23.595Z,66.81
2016-10-10T05:30:23.634Z,66.24
2016-10-10T05:31:23.315Z,66.62
2016-10-10T05:32:23.342Z,66.91
2016-10-10T05:33:23.660Z,66.81
2016-10-10T05:34:23.384Z,66.81
2016-10-10T05:35:23.698Z,67
2016-10-10T05:36:23.715Z,66.62
2016-10-10T05:37:23.731Z,66.43
2016-10-10T05:38:23.435Z,66.14
2016-10-10T05:39:23.450Z,66.91
2016-10-10T05:40:23.782Z,66.33
2016-10-10T05:41:23.800Z,66.53
2016-10-10T05:42:23.502Z,66.43
2016-10-10T05:43:23.833Z,66.24
2016-10-10T05:44:23.535Z,66.43
2016-10-10T05:45:23.867Z,66.24
2016-10-10T05:46:23.571Z,66.33
2016-10-10T05:48:23.917Z,66.81
2016-10-10T05:49:23.934Z,66.62
2016-10-10T05:50:23.955Z,66.53
2016-10-10T05:51:23.655Z,66.43
2016-10-10T05:52:23.674Z,66.43
2016-10-10T05:53:23.689Z,66.72
2016-10-10T05:54:24.022Z,65.86
2016-10-10T05:55:24.039Z,66.24
2016-10-10T05:56:23.741Z,65.77
2016-10-10T05:57:23.756Z,65.67
2016-10-10T05:58:23.774Z,65.58
2016-10-10T05:59:23.788Z,65.48
2016-10-10T06:00:23.806Z,66.05
2016-10-10T06:01:23.827Z,65.86
2016-10-10T06:02:24.166Z,66.05
2016-10-10T06:03:23.855Z,65.86
2016-10-10T06:04:23.886Z,65.95
2016-10-10T06:05:24.208Z,65.95
2016-10-10T06:06:24.223Z,65.77
2016-10-10T06:07:23.927Z,65.95
2016-10-10T06:08:23.943Z,65.86
2016-10-10T06:09:23.960Z,66.05
2016-10-10T06:10:24.299Z,65.67
2016-10-10T06:11:24.323Z,65.86
2016-10-10T06:12:24.017Z,65.48
2016-10-10T06:13:24.031Z,65.86
2016-10-10T06:14:24.362Z,65.48
2016-10-10T06:15:24.064Z,65.19
2016-10-10T06:16:24.079Z,65.29
2016-10-10T06:17:24.412Z,65.1
2016-10-10T06:18:24.114Z,65.19
2016-10-10T06:19:24.450Z,65.19
2016-10-10T06:20:24.151Z,65.29
2016-10-10T06:21:24.481Z,65.67
2016-10-10T06:22:24.182Z,66.14
2016-10-10T06:23:24.514Z,65.48
2016-10-10T06:24:24.535Z,65.86
2016-10-10T06:25:24.549Z,65
2016-10-10T06:26:24.567Z,65.13
2016-10-10T06:27:24.585Z,64.28
2016-10-10T06:28:24.605Z,64.47
2016-10-10T06:29:24.621Z,64.94
2016-10-10T06:30:24.323Z,64.94
2016-10-10T06:31:39.227Z,64.84
2016-10-10T06:32:24.673Z,65.42
2016-10-10T06:33:24.690Z,64.94
2016-10-10T06:34:24.392Z,65.03
2016-10-10T06:35:24.409Z,64.84
2016-10-10T06:36:24.425Z,65.23
2016-10-10T06:37:24.759Z,65.23
2016-10-10T06:38:24.787Z,65.23
2016-10-10T06:39:24.479Z,64.84
2016-10-10T06:40:24.812Z,65.51
2016-10-10T06:41:24.829Z,64.47
2016-10-10T06:42:24.845Z,63.99
2016-10-10T06:43:24.549Z,64.47
2016-10-10T06:44:24.566Z,64.08
2016-10-10T06:45:24.583Z,64.37
2016-10-10T06:46:24.916Z,64.65
2016-10-10T06:47:24.932Z,64.56
2016-10-10T06:48:24.953Z,64.08
2016-10-10T06:49:24.655Z,64.28
2016-10-10T06:50:24.670Z,64.37
2016-10-10T06:51:25.004Z,63.7
2016-10-10T06:52:25.038Z,63.51
2016-10-10T06:53:24.723Z,64.47
2016-10-10T06:54:24.741Z,64.18
2016-10-10T06:55:25.075Z,63.99
2016-10-10T06:56:24.790Z,64.21
2016-10-10T06:57:24.797Z,64.78
2016-10-10T06:58:25.130Z,64.75
2016-10-10T06:59:24.828Z,63.54
2016-10-10T07:00:24.847Z,63.99
2016-10-10T07:01:25.181Z,64.18
2016-10-10T07:02:24.882Z,64.94
2016-10-10T07:03:24.911Z,64.84
2016-10-10T07:04:24.927Z,64.78
2016-10-10T07:05:25.253Z,64.78
2016-10-10T07:06:24.953Z,64.5
2016-10-10T07:07:24.972Z,64.69
2016-10-10T07:08:25.310Z,63.73
2016-10-10T07:09:25.319Z,64.31
2016-10-10T07:10:25.030Z,64.31
2016-10-10T07:11:25.043Z,64.02
2016-10-10T07:12:25.375Z,63.64
2016-10-10T07:13:25.079Z,63.73
2016-10-10T07:14:25.411Z,63.73
2016-10-10T07:15:25.430Z,64.02
2016-10-10T07:16:25.446Z,63.54
2016-10-10T07:17:25.149Z,64.21
2016-10-10T07:18:25.484Z,64.5
2016-10-10T07:19:25.500Z,64.5
2016-10-10T07:20:25.519Z,64.4
2016-10-10T07:21:25.220Z,63.92
2016-10-10T07:22:25.553Z,63.83
2016-10-10T07:23:25.573Z,62.88
2016-10-10T07:24:25.590Z,62.72
2016-10-10T07:25:25.294Z,63.45
2016-10-10T07:26:25.312Z,64.24
2016-10-10T07:27:25.330Z,63.67
2016-10-10T07:28:25.661Z,63.73
2016-10-10T07:29:25.364Z,64.02
2016-10-10T07:30:25.383Z,64.69
2016-10-10T07:31:25.717Z,64.87
2016-10-10T07:32:25.736Z,64.31
2016-10-10T07:33:25.438Z,64.4
2016-10-10T07:34:25.456Z,64.59
2016-10-10T07:35:25.789Z,64.4
2016-10-10T07:36:25.497Z,63.92
2016-10-10T07:37:25.513Z,64.4
2016-10-10T07:38:25.840Z,64.59
2016-10-10T07:39:25.863Z,65.26
2016-10-10T07:40:25.563Z,65.26
2016-10-10T07:41:25.582Z,64.97
2016-10-10T07:42:25.919Z,64.97
2016-10-10T07:43:25.617Z,64.87
2016-10-10T07:44:25.638Z,64.43
2016-10-10T07:45:25.655Z,64.69
2016-10-10T07:46:25.670Z,63.76
2016-10-10T07:47:25.695Z,63.83
2016-10-10T07:48:25.712Z,64.78
2016-10-10T07:49:26.040Z,64.69
2016-10-10T07:50:26.065Z,64.31
2016-10-10T07:51:26.081Z,64.31
2016-10-10T07:52:25.787Z,64.05
2016-10-10T07:53:26.111Z,64.81
2016-10-10T07:54:26.166Z,64.43
2016-10-10T07:55:25.831Z,64.43
2016-10-10T07:56:26.170Z,64.69
2016-10-10T07:57:26.184Z,64.4
2016-10-10T07:58:26.202Z,64.78
2016-10-10T07:59:25.904Z,65.16
2016-10-10T08:00:26.240Z,65.55
2016-10-10T08:01:26.255Z,65.73
2016-10-10T08:02:26.296Z,65.64
2016-10-10T08:03:25.978Z,65.16
2016-10-10T08:04:25.996Z,64.4
2016-10-10T08:05:26.329Z,64.21
2016-10-10T08:06:26.031Z,64.69
2016-10-10T08:07:26.365Z,64.78
2016-10-10T08:08:26.068Z,64.78
2016-10-10T08:09:26.086Z,64.87
2016-10-10T08:10:26.418Z,65.64
2016-10-10T08:11:26.121Z,65.64
2016-10-10T08:12:26.139Z,66.02
2016-10-10T08:13:26.473Z,65.92
2016-10-10T08:14:26.180Z,65.45
2016-10-10T08:15:26.509Z,64.5
2016-10-10T08:16:26.221Z,64.5
2016-10-10T08:17:26.229Z,64.97
2016-10-10T08:18:26.569Z,64.87
2016-10-10T08:19:26.406Z,64.62
2016-10-10T08:20:26.600Z,64.5
2016-10-10T08:21:26.303Z,64.62
2016-10-10T08:22:26.633Z,64.34
2016-10-10T08:23:26.335Z,64.81
2016-10-10T08:24:27.083Z,65.86
2016-10-10T08:25:26.374Z,64.81
2016-10-10T08:26:26.709Z,65.77
2016-10-10T08:27:26.725Z,64.62
2016-10-10T08:28:26.429Z,64.81
2016-10-10T08:29:26.783Z,64.91
2016-10-10T08:30:26.784Z,64.43
2016-10-10T08:31:26.484Z,64.53
2016-10-10T08:32:26.501Z,64.53
2016-10-10T08:33:26.531Z,65.29
2016-10-10T08:34:26.541Z,65.86
2016-10-10T08:35:26.558Z,65.58
2016-10-10T08:36:26.906Z,65.29
2016-10-10T08:37:26.907Z,64.91
2016-10-10T08:38:26.928Z,65.77
2016-10-10T08:39:26.629Z,65.61
2016-10-10T08:40:26.657Z,65.8
2016-10-10T08:41:26.667Z,65.33
2016-10-10T08:42:26.786Z,64.85
2016-10-10T08:43:27.017Z,64.28
2016-10-10T08:44:26.721Z,63.6
2016-10-10T08:45:26.739Z,63.7
2016-10-10T08:46:27.074Z,63.99
2016-10-10T08:47:26.777Z,63.7
2016-10-10T08:48:26.812Z,63.13
2016-10-10T08:49:27.128Z,63.13
2016-10-10T08:50:26.831Z,63.04
2016-10-10T08:51:27.186Z,63.04
2016-10-10T08:52:27.205Z,63.35
2016-10-10T08:53:26.888Z,62.88
2016-10-10T08:54:27.222Z,62.59
2016-10-10T08:55:26.937Z,62.3
2016-10-10T08:56:27.267Z,62.4
2016-10-10T08:57:27.279Z,62.49
2016-10-10T08:58:27.296Z,62.78
2016-10-10T08:59:27.318Z,62.3
2016-10-10T09:00:27.335Z,61.92
2016-10-10T09:01:27.038Z,62.02
2016-10-10T09:02:27.374Z,61.44
2016-10-10T09:03:27.409Z,61.16
2016-10-10T09:04:27.410Z,61.16
2016-10-10T09:05:27.113Z,60.97
2016-10-10T09:06:27.467Z,61.54
2016-10-10T09:07:27.152Z,61.63
2016-10-10T09:08:27.173Z,61.83
2016-10-10T09:09:27.648Z,61.73
2016-10-10T09:10:27.218Z,61.86
2016-10-10T09:11:27.228Z,62.24
2016-10-10T09:12:27.563Z,61.66
2016-10-10T09:13:27.581Z,60.9
2016-10-10T09:14:27.286Z,60.52
2016-10-10T09:15:27.306Z,60.61
2016-10-10T09:16:27.325Z,60.9
2016-10-10T09:17:27.659Z,61
2016-10-10T09:18:27.375Z,61.19
2016-10-10T09:19:27.384Z,60.42
2016-10-10T09:20:27.403Z,60.55
2016-10-10T09:21:27.420Z,60.52
2016-10-10T09:22:27.441Z,60.36
2016-10-10T09:23:27.470Z,60.17
2016-10-10T09:24:27.794Z,59.12
2016-10-10T09:25:27.500Z,59.12
2016-10-10T09:26:27.834Z,58.83
2016-10-10T09:27:27.539Z,57.78
2016-10-10T09:28:27.872Z,55.87
2016-10-10T09:29:27.577Z,57.21
2016-10-10T09:30:27.595Z,57.78
2016-10-10T09:31:27.935Z,58.16
2016-10-10T09:32:27.951Z,58.26
2016-10-10T09:33:27.971Z,57.68
2016-10-10T09:34:27.679Z,57.4
2016-10-10T09:35:28.013Z,57.24
2016-10-10T09:36:28.033Z,57.11
2016-10-10T09:37:27.736Z,57.21
2016-10-10T09:38:27.759Z,57.43
2016-10-10T09:39:28.094Z,56.85
2016-10-10T09:40:28.113Z,57.43
2016-10-10T09:41:28.130Z,58.29
2016-10-10T09:42:28.154Z,58.29
2016-10-10T09:43:27.855Z,57.24
2016-10-10T09:44:28.193Z,56.76
2016-10-10T09:45:28.230Z,56.18
2016-10-10T09:46:28.232Z,55.52
2016-10-10T09:47:27.952Z,55.99
2016-10-10T09:48:27.956Z,55.71
2016-10-10T09:49:28.012Z,56.67
2016-10-10T09:50:28.012Z,56.31
2016-10-10T09:51:28.331Z,55.83
2016-10-10T09:52:28.354Z,55.9
2016-10-10T09:53:28.060Z,55.45
2016-10-10T09:54:28.077Z,55.74
2016-10-10T09:55:28.097Z,55.54
2016-10-10T09:56:28.434Z,56.12
2016-10-10T09:57:28.456Z,54.3
2016-10-10T09:58:28.160Z,54.3
2016-10-10T09:59:28.494Z,52.77
2016-10-10T10:00:28.511Z,53.63
2016-10-10T10:01:28.536Z,54.39
2016-10-10T10:02:28.555Z,54.02
2016-10-10T10:03:28.586Z,52.77
2016-10-10T10:04:28.284Z,53.25
2016-10-10T10:05:28.300Z,54.21
2016-10-10T10:06:28.637Z,53.34
2016-10-10T10:07:28.656Z,53.82
2016-10-10T10:08:28.363Z,54.39
2016-10-10T10:09:28.698Z,54.68
2016-10-10T10:10:28.404Z,53.92
2016-10-10T10:11:28.428Z,53.92
2016-10-10T10:12:28.445Z,54.21
2016-10-10T10:13:28.462Z,53.82
2016-10-10T10:14:28.488Z,54.21
2016-10-10T10:15:28.509Z,54.97
2016-10-10T10:16:28.526Z,54.68
2016-10-10T10:17:28.548Z,54.97
2016-10-10T10:18:28.574Z,55.64
2016-10-10T10:19:28.585Z,54.11
2016-10-10T10:20:28.609Z,53.06
2016-10-10T10:21:28.945Z,54.21
2016-10-10T10:22:28.713Z,53.44
2016-10-10T10:23:28.670Z,53.92
2016-10-10T10:24:29.010Z,54.59
2016-10-10T10:25:29.027Z,53.73
2016-10-10T10:26:28.732Z,54.33
2016-10-10T10:27:28.753Z,55.1
2016-10-10T10:28:28.773Z,54.71
2016-10-10T10:29:28.809Z,54.61
2016-10-10T10:30:29.132Z,54.43
2016-10-10T10:31:29.149Z,54.61
2016-10-10T10:32:28.862Z,54.43
2016-10-10T10:33:28.875Z,54.04
2016-10-10T10:34:28.897Z,54.61
2016-10-10T10:35:29.233Z,51.68
2016-10-10T10:36:28.941Z,51.1
2016-10-10T10:37:28.961Z,51.93
2016-10-10T10:38:28.983Z,51.65
2016-10-10T10:39:29.319Z,51.65
2016-10-10T10:40:29.340Z,51.46
2016-10-10T10:41:29.049Z,50.7
2016-10-10T10:42:29.073Z,50.79
2016-10-10T10:43:29.400Z,51.75
2016-10-10T10:44:29.423Z,52.42
2016-10-10T10:45:29.457Z,52.42
2016-10-10T10:46:29.153Z,52.32
2016-10-10T10:47:29.179Z,51.36
2016-10-10T10:48:29.192Z,52.03
2016-10-10T10:49:29.536Z,51.84
2016-10-10T10:50:29.568Z,50.98
2016-10-10T10:51:29.254Z,52.13
2016-10-10T10:52:29.276Z,51.36
2016-10-10T10:53:29.612Z,51.46
2016-10-10T10:54:29.317Z,51.84
2016-10-10T10:55:29.343Z,51.93
2016-10-10T10:56:29.674Z,51.93
2016-10-10T10:57:29.381Z,49.74
2016-10-10T10:58:29.719Z,50.31
2016-10-10T10:59:29.425Z,50.6
2016-10-10T11:00:29.760Z,50.29
2016-10-10T11:01:29.780Z,50.6
2016-10-10T11:02:29.484Z,51.07
2016-10-10T11:03:29.506Z,51.56
2016-10-10T11:04:29.547Z,52.32
2016-10-10T11:05:29.880Z,52.8
2016-10-10T11:06:29.883Z,52.42
2016-10-10T11:07:29.902Z,52.22
2016-10-10T11:08:29.924Z,51.75
2016-10-10T11:09:29.628Z,52.1
2016-10-10T11:10:29.965Z,52.89
2016-10-10T11:11:29.670Z,51.46
2016-10-10T11:12:29.701Z,51.17
2016-10-10T11:13:30.026Z,51.84
2016-10-10T11:14:29.733Z,52.61
2016-10-10T11:15:29.759Z,51.65
2016-10-10T11:16:29.774Z,53.08
2016-10-10T11:17:30.110Z,53.94
2016-10-10T11:18:30.133Z,53.08
2016-10-10T11:19:29.840Z,51.17
2016-10-10T11:20:30.200Z,50.7
2016-10-10T11:21:29.885Z,51.17
2016-10-10T11:22:30.219Z,52.61
2016-10-10T11:23:30.239Z,53.06
2016-10-10T11:24:30.260Z,52.32
2016-10-10T11:25:29.968Z,52.61
2016-10-10T11:26:30.299Z,52.8
2016-10-10T11:27:30.320Z,53.85
2016-10-10T11:28:30.026Z,54.14
2016-10-10T11:29:30.045Z,53.75
2016-10-10T11:30:30.068Z,53.75
2016-10-10T11:31:30.085Z,53.66
2016-10-10T11:32:30.106Z,53.08
2016-10-10T11:33:30.132Z,52.32
2016-10-10T11:34:30.468Z,52.51
2016-10-10T11:35:30.488Z,52.32
2016-10-10T11:36:30.509Z,52.51
2016-10-10T11:37:30.214Z,52.51
2016-10-10T11:38:30.572Z,52.32
2016-10-10T11:39:30.572Z,51.93
2016-10-10T11:40:30.593Z,52.13
2016-10-10T11:41:30.617Z,52.8
2016-10-10T11:42:30.375Z,52.13
2016-10-10T11:43:30.346Z,52.32
2016-10-10T11:44:30.362Z,53.37
2016-10-10T11:45:30.388Z,53.18
2016-10-10T11:46:30.406Z,53.66
2016-10-10T11:47:30.747Z,53.28
2016-10-10T11:48:30.446Z,52.51
2016-10-10T11:49:30.784Z,51.27
2016-10-10T11:50:30.489Z,50.89
2016-10-10T11:51:30.511Z,51.56
2016-10-10T11:52:30.845Z,51.93
2016-10-10T11:53:30.555Z,52.13
2016-10-10T11:54:30.909Z,52.34
2016-10-10T11:55:30.909Z,53.4
2016-10-10T11:56:30.930Z,53.2
2016-10-10T11:57:30.954Z,52.44
2016-10-10T11:58:30.661Z,52.92
2016-10-10T11:59:30.996Z,52.34
2016-10-10T12:00:31.015Z,52.54
2016-10-10T12:01:31.036Z,52.44
2016-10-10T12:02:31.059Z,51.1
2016-10-10T12:03:30.766Z,52.06
2016-10-10T12:04:30.788Z,51.99
2016-10-10T12:05:30.820Z,51.51
2016-10-10T12:06:31.145Z,51.32
2016-10-10T12:07:31.165Z,51.22
2016-10-10T12:08:30.872Z,51.25
2016-10-10T12:09:30.893Z,50.77
2016-10-10T12:10:31.231Z,50.87
2016-10-10T12:11:31.251Z,49.62
2016-10-10T12:12:31.273Z,49.84
2016-10-10T12:13:30.981Z,49.45
2016-10-10T12:14:31.005Z,48.88
2016-10-10T12:15:31.341Z,48.97
2016-10-10T12:16:31.048Z,48.21
2016-10-10T12:17:31.386Z,48.21
2016-10-10T12:18:31.093Z,44.47
2016-10-10T12:19:31.115Z,45.04
2016-10-10T12:20:31.136Z,45.81
2016-10-10T12:21:31.160Z,44.09
2016-10-10T12:22:31.497Z,45.43
2016-10-10T12:23:31.205Z,45.23
2016-10-10T12:24:31.542Z,45.52
2016-10-10T12:25:31.251Z,46.39
2016-10-10T12:26:31.269Z,45.62
2016-10-10T12:27:31.294Z,45.04
2016-10-10T12:28:31.319Z,45.23
2016-10-10T12:29:31.339Z,46.19
2016-10-10T12:30:31.361Z,47.06
2016-10-10T12:31:31.699Z,44.47
2016-10-10T12:32:31.725Z,43.7
2016-10-10T12:33:31.744Z,43.51
2016-10-10T12:34:31.768Z,44.47
2016-10-10T12:35:31.475Z,45.33
2016-10-10T12:36:31.498Z,45.07
2016-10-10T12:37:31.551Z,46.22
2016-10-10T12:38:31.542Z,46.79
2016-10-10T12:39:31.565Z,47.27
2016-10-10T12:40:31.591Z,46.41
2016-10-10T12:41:31.901Z,44.11
2016-10-10T12:42:31.949Z,45.83
2016-10-10T12:43:31.972Z,46.14
2016-10-10T12:44:32.007Z,44.7
2016-10-10T12:45:32.016Z,41.35
2016-10-10T12:46:31.724Z,42.69
2016-10-10T12:47:31.747Z,43.65
2016-10-10T12:48:32.086Z,44.7
2016-10-10T12:49:32.112Z,44.4
2016-10-10T12:50:32.133Z,44.2
2016-10-10T12:51:32.752Z,44.87
2016-10-10T12:52:32.182Z,44.49
2016-10-10T12:53:31.886Z,43.65
2016-10-10T12:54:32.224Z,43.63
2016-10-10T12:55:31.933Z,44.4
2016-10-10T12:56:32.270Z,42.67